Kezdőlap
METAR-TAF:

METAR-TAF

Repülőterek :

Nouakchott, Mauritánia

földrajzi szélesség: 18-18-36N, földrajzi hosszúság: 015-58-11W, magasság: 3 m

Jelenlegi meteorológiai megfigyelések

A jelentés 42 perccel ezelõtt készült, 11:00 UTC
Északkeleti szél 13 kt
Hőmérséklet 32°C
Páratartalom 28%
Légköri nyomás 1012 hPa
Látótávolság 10 km, vagy több
felhőtlen 1500 m magasságban, és nincs gomolyfelhõ

METAR: GQNO 181100Z 04013KT CAVOK 32/11 Q1012 NOSIG

Idő: 11:42 (11:42 UTC)

Előrejelzés

A jelentés 6 órával és 42 perccel ezelõtt készült, 05:00 UTC
Az előrejelzés 18-én 06 óra UTC és 19-én 12 óra UTC között érvényes
Észak-északnyugati szél 10 kt
Látótávolság: 8000 m
Valószínűség 30% :
18-én 09 óra UTC és 18-én 13 óra UTC között ideiglenes
Észak-északkeleti szél 8 kt

TAF: GQNO 180500Z 1806/1912 33010KT 8000 NSC PROB30 TEMPO 1809/1813 03008KT

Meteorológiai megfigyelések és előrejelzések több, mint 4000 repülőtéren (METAR és TAF jelentéseket).

A térképen piros és sárga pontok jelzik az elérhető meteorológiai állomásokat.

Mozgassa az egeret a pont fölött, hogy megjelenjen az állomás neve.

Azután kattintson az időjárási megfigyelések és előrejelzések megtekintéséhez.

A térkép megváltoztatása: kattintson a fekete keresztel jelölt zöld gombra ráközelítéshez, a vonallal jelölt zöld gombra távolításhoz, vagy a zöld nyilakra a szomszédos térképek eléréséhez.


METAR-TAF: